EZY3MC EDDB-ESSA
Flight info
| Callsign | EZY3MC |
|---|---|
| Flight time | 1h 20m |
| Altitude | 39000 |
| Route | GERGA4N GERGA M725 RENKI L132 DEMUR DCT LUSID DCT ARMOD Z228 NILUG |
| Aircraft | A20N/M-SDE2E3FGHIRWXY/LB1 |
Departure
| Time | 2026-05-04 08:33 |
|---|---|
| Airport | Berlin Brandenburg Airport (EDDB) |
Arrival
| Time | 2026-05-04 09:53 |
|---|---|
| Airport | Stockholm-Arlanda Airport (ESSA) |
| Time | Latitude | Longitude | Altitude | Speed | Heading |
|---|---|---|---|---|---|
| 2026-05-04 08:03 | 52.36202 | 13.51652 | 158 ft | 0 kts | 339° |
| 2026-05-04 08:24 | 52.36131 | 13.51687 | 159 ft | 4 kts | 27° |
| 2026-05-04 08:24 | 52.36116 | 13.51660 | 158 ft | 4 kts | 69° |
| 2026-05-04 08:24 | 52.36110 | 13.51636 | 158 ft | 0 kts | 69° |
| 2026-05-04 08:28 | 52.36111 | 13.51638 | 158 ft | 0 kts | 68° |
| 2026-05-04 08:28 | 52.36112 | 13.51641 | 158 ft | 0 kts | 68° |
| 2026-05-04 08:29 | 52.36129 | 13.51711 | 158 ft | 10 kts | 69° |
| 2026-05-04 08:29 | 52.36127 | 13.51812 | 158 ft | 9 kts | 128° |
| 2026-05-04 08:29 | 52.36085 | 13.51894 | 155 ft | 10 kts | 102° |
| 2026-05-04 08:31 | 52.35844 | 13.52259 | 161 ft | 8 kts | 205° |
| 2026-05-04 08:33 | 52.32597 | 13.43645 | 3015 ft | 213 kts | 232° |
| 2026-05-04 08:33 | 52.31634 | 13.41742 | 3906 ft | 219 kts | 232° |
| 2026-05-04 08:35 | 52.24756 | 13.28284 | 10042 ft | 233 kts | 216° |
| 2026-05-04 08:35 | 52.23233 | 13.27316 | 10760 ft | 242 kts | 190° |
| 2026-05-04 08:35 | 52.21534 | 13.27670 | 11486 ft | 256 kts | 161° |
| 2026-05-04 08:35 | 52.20097 | 13.29476 | 12223 ft | 272 kts | 130° |
| 2026-05-04 08:37 | 52.21682 | 13.49819 | 15733 ft | 342 kts | 75° |
| 2026-05-04 08:37 | 52.22343 | 13.53570 | 16451 ft | 346 kts | 76° |
| 2026-05-04 08:37 | 52.23001 | 13.57365 | 17174 ft | 349 kts | 76° |
| 2026-05-04 08:38 | 52.23659 | 13.61195 | 17876 ft | 353 kts | 76° |
| 2026-05-04 08:38 | 52.24321 | 13.65070 | 18532 ft | 357 kts | 76° |
| 2026-05-04 08:38 | 52.24987 | 13.68987 | 19137 ft | 360 kts | 76° |
| 2026-05-04 08:40 | 52.32068 | 13.95234 | 23340 ft | 374 kts | 31° |
| 2026-05-04 08:40 | 52.34380 | 13.97198 | 23688 ft | 378 kts | 16° |
| 2026-05-04 08:40 | 52.36955 | 13.98223 | 23865 ft | 385 kts | 5° |
| 2026-05-04 08:41 | 52.39641 | 13.98800 | 24035 ft | 395 kts | 2° |
| 2026-05-04 08:41 | 52.42414 | 13.99314 | 24206 ft | 406 kts | 2° |
| 2026-05-04 08:41 | 52.45259 | 13.99845 | 24379 ft | 417 kts | 2° |
| 2026-05-04 08:41 | 52.48172 | 14.00406 | 24657 ft | 424 kts | 2° |
| 2026-05-04 08:42 | 52.51113 | 14.00984 | 25037 ft | 428 kts | 2° |
| 2026-05-04 08:42 | 52.54081 | 14.01574 | 25441 ft | 430 kts | 2° |
| 2026-05-04 08:42 | 52.57067 | 14.02170 | 25849 ft | 433 kts | 2° |
| 2026-05-04 08:42 | 52.60026 | 14.02522 | 26233 ft | 432 kts | 355° |
| 2026-05-04 08:43 | 52.63019 | 14.02271 | 26622 ft | 431 kts | 351° |
| 2026-05-04 08:43 | 52.66006 | 14.01771 | 27020 ft | 432 kts | 348° |
| 2026-05-04 08:43 | 52.68990 | 14.01146 | 27408 ft | 433 kts | 347° |
| 2026-05-04 08:43 | 52.71980 | 14.00466 | 27810 ft | 435 kts | 347° |
| 2026-05-04 08:44 | 52.74985 | 13.99772 | 28172 ft | 437 kts | 347° |
| 2026-05-04 08:44 | 52.78001 | 13.99085 | 28540 ft | 439 kts | 347° |
| 2026-05-04 08:46 | 52.99060 | 14.05274 | 30793 ft | 476 kts | 32° |
| 2026-05-04 08:46 | 53.01744 | 14.08504 | 31091 ft | 477 kts | 33° |
| 2026-05-04 08:46 | 53.04400 | 14.11830 | 31384 ft | 478 kts | 34° |
| 2026-05-04 08:46 | 53.06145 | 14.14043 | 31587 ft | 479 kts | 34° |
| 2026-05-04 08:47 | 53.08798 | 14.17413 | 31870 ft | 480 kts | 34° |
| 2026-05-04 08:47 | 53.11460 | 14.20781 | 32149 ft | 480 kts | 34° |
| 2026-05-04 08:47 | 53.15026 | 14.25267 | 32516 ft | 481 kts | 34° |
| 2026-05-04 08:47 | 53.16800 | 14.27490 | 32690 ft | 482 kts | 34° |
| 2026-05-04 08:48 | 53.19486 | 14.30848 | 32939 ft | 483 kts | 34° |
| 2026-05-04 08:48 | 53.22176 | 14.34211 | 33200 ft | 484 kts | 34° |
| 2026-05-04 08:48 | 53.24875 | 14.37587 | 33437 ft | 485 kts | 33° |
| 2026-05-04 08:48 | 53.27689 | 14.40652 | 33671 ft | 482 kts | 25° |
| 2026-05-04 08:49 | 53.30674 | 14.43151 | 33915 ft | 481 kts | 21° |
| 2026-05-04 08:50 | 53.48960 | 14.56653 | 35367 ft | 476 kts | 19° |
| 2026-05-04 08:50 | 53.51993 | 14.58875 | 35597 ft | 475 kts | 19° |
| 2026-05-04 08:51 | 53.55019 | 14.61102 | 35818 ft | 474 kts | 20° |
| 2026-05-04 08:51 | 53.58042 | 14.63334 | 36023 ft | 474 kts | 20° |
| 2026-05-04 08:51 | 53.61059 | 14.65566 | 36226 ft | 474 kts | 20° |
| 2026-05-04 08:51 | 53.64075 | 14.67802 | 36432 ft | 473 kts | 20° |
| 2026-05-04 08:52 | 53.67084 | 14.70038 | 36643 ft | 472 kts | 20° |
| 2026-05-04 08:52 | 53.70090 | 14.72273 | 36848 ft | 472 kts | 20° |
| 2026-05-04 08:52 | 53.73097 | 14.74513 | 37053 ft | 471 kts | 20° |
| 2026-05-04 08:52 | 53.76089 | 14.76745 | 37250 ft | 470 kts | 20° |
| 2026-05-04 08:53 | 53.79082 | 14.78982 | 37443 ft | 470 kts | 20° |
| 2026-05-04 08:54 | 53.99885 | 14.94620 | 38661 ft | 465 kts | 20° |
| 2026-05-04 08:55 | 54.02800 | 14.96825 | 38773 ft | 465 kts | 20° |
| 2026-05-04 08:55 | 54.05755 | 14.99050 | 38869 ft | 464 kts | 18° |
| 2026-05-04 08:55 | 54.11909 | 15.02061 | 38938 ft | 460 kts | 8° |
| 2026-05-04 09:01 | 54.77642 | 15.24688 | 38911 ft | 461 kts | 7° |
| 2026-05-04 09:01 | 54.83943 | 15.26893 | 38912 ft | 462 kts | 7° |
| 2026-05-04 09:02 | 54.90237 | 15.29176 | 38899 ft | 464 kts | 12° |
| 2026-05-04 09:02 | 54.96333 | 15.33030 | 38898 ft | 467 kts | 19° |
| 2026-05-04 09:03 | 55.02343 | 15.37401 | 38893 ft | 469 kts | 20° |
| 2026-05-04 09:03 | 55.08303 | 15.41872 | 38888 ft | 469 kts | 20° |
| 2026-05-04 09:04 | 55.14304 | 15.46379 | 38883 ft | 469 kts | 20° |
| 2026-05-04 09:04 | 55.20306 | 15.50876 | 38879 ft | 469 kts | 20° |
| 2026-05-04 09:05 | 55.26304 | 15.55373 | 38873 ft | 469 kts | 20° |
| 2026-05-04 09:05 | 55.32303 | 15.59884 | 38864 ft | 469 kts | 20° |
| 2026-05-04 09:06 | 55.38294 | 15.64406 | 38863 ft | 469 kts | 20° |
| 2026-05-04 09:08 | 55.62250 | 15.82639 | 38845 ft | 469 kts | 20° |
| 2026-05-04 09:08 | 55.68241 | 15.87237 | 38843 ft | 469 kts | 20° |
| 2026-05-04 09:09 | 55.74226 | 15.91846 | 38842 ft | 469 kts | 20° |
| 2026-05-04 09:09 | 55.80212 | 15.96471 | 38837 ft | 469 kts | 20° |
| 2026-05-04 09:10 | 55.86197 | 16.01111 | 38833 ft | 469 kts | 20° |
| 2026-05-04 09:10 | 55.92178 | 16.05764 | 38834 ft | 469 kts | 20° |
| 2026-05-04 09:11 | 55.98162 | 16.10434 | 38830 ft | 469 kts | 20° |
| 2026-05-04 09:11 | 56.04143 | 16.15119 | 38821 ft | 469 kts | 20° |
| 2026-05-04 09:12 | 56.10124 | 16.19819 | 38818 ft | 469 kts | 20° |
| 2026-05-04 09:14 | 56.34044 | 16.38777 | 38811 ft | 470 kts | 20° |
| 2026-05-04 09:14 | 56.39984 | 16.43526 | 38808 ft | 470 kts | 20° |
| 2026-05-04 09:15 | 56.46003 | 16.48354 | 38805 ft | 470 kts | 20° |
| 2026-05-04 09:15 | 56.51938 | 16.53131 | 38800 ft | 470 kts | 20° |
| 2026-05-04 09:17 | 56.78816 | 16.74973 | 38796 ft | 470 kts | 20° |
| 2026-05-04 09:18 | 56.84785 | 16.79870 | 38794 ft | 470 kts | 20° |
| 2026-05-04 09:18 | 56.90758 | 16.84789 | 38794 ft | 471 kts | 20° |
| 2026-05-04 09:19 | 56.96730 | 16.89723 | 38792 ft | 471 kts | 21° |
| 2026-05-04 09:19 | 57.02698 | 16.94672 | 38794 ft | 471 kts | 21° |
| 2026-05-04 09:20 | 57.08668 | 16.99640 | 38791 ft | 471 kts | 21° |
| 2026-05-04 09:20 | 57.14633 | 17.04622 | 38787 ft | 471 kts | 21° |
| 2026-05-04 09:21 | 57.20599 | 17.09621 | 38786 ft | 471 kts | 21° |
| 2026-05-04 09:21 | 57.26572 | 17.14645 | 38779 ft | 471 kts | 21° |
| 2026-05-04 09:22 | 57.32540 | 17.19683 | 38780 ft | 471 kts | 21° |
| 2026-05-04 09:22 | 57.38504 | 17.24735 | 38776 ft | 472 kts | 21° |
| 2026-05-04 09:23 | 57.44429 | 17.29772 | 38772 ft | 472 kts | 21° |
| 2026-05-04 09:23 | 57.50459 | 17.34462 | 38776 ft | 464 kts | 8° |
| 2026-05-04 09:25 | 57.72627 | 17.43547 | 37334 ft | 469 kts | 7° |
| 2026-05-04 09:25 | 57.75826 | 17.44828 | 37081 ft | 470 kts | 7° |
| 2026-05-04 09:26 | 57.79021 | 17.46109 | 36819 ft | 471 kts | 7° |
| 2026-05-04 09:26 | 57.82231 | 17.47398 | 36560 ft | 471 kts | 7° |
| 2026-05-04 09:26 | 57.85438 | 17.48687 | 36306 ft | 472 kts | 7° |
| 2026-05-04 09:26 | 57.88656 | 17.49984 | 36056 ft | 473 kts | 7° |
| 2026-05-04 09:27 | 57.91877 | 17.51284 | 35804 ft | 474 kts | 7° |
| 2026-05-04 09:27 | 57.95103 | 17.52588 | 35539 ft | 474 kts | 7° |
| 2026-05-04 09:27 | 57.98325 | 17.53893 | 34946 ft | 475 kts | 7° |
| 2026-05-04 09:27 | 58.01573 | 17.55208 | 34162 ft | 480 kts | 7° |
| 2026-05-04 09:28 | 58.04859 | 17.56541 | 33268 ft | 486 kts | 7° |
| 2026-05-04 09:28 | 58.08185 | 17.57894 | 32344 ft | 491 kts | 7° |
| 2026-05-04 09:28 | 58.11542 | 17.59263 | 31484 ft | 495 kts | 7° |
| 2026-05-04 09:28 | 58.14901 | 17.60640 | 30895 ft | 493 kts | 7° |
| 2026-05-04 09:29 | 58.18245 | 17.62013 | 30263 ft | 491 kts | 7° |
| 2026-05-04 09:29 | 58.21581 | 17.63383 | 29533 ft | 491 kts | 7° |
| 2026-05-04 09:29 | 58.24919 | 17.64756 | 28827 ft | 489 kts | 7° |
| 2026-05-04 09:29 | 58.28232 | 17.66123 | 28175 ft | 486 kts | 7° |
| 2026-05-04 09:30 | 58.31488 | 17.67467 | 27515 ft | 483 kts | 7° |
| 2026-05-04 09:30 | 58.34808 | 17.68840 | 26858 ft | 480 kts | 7° |
| 2026-05-04 09:30 | 58.38036 | 17.70182 | 26587 ft | 469 kts | 7° |
| 2026-05-04 09:30 | 58.41157 | 17.71482 | 26054 ft | 462 kts | 7° |
| 2026-05-04 09:31 | 58.44279 | 17.72780 | 25213 ft | 457 kts | 7° |
| 2026-05-04 09:31 | 58.47358 | 17.74062 | 24391 ft | 451 kts | 7° |
| 2026-05-04 09:31 | 58.50416 | 17.75338 | 23588 ft | 446 kts | 7° |
| 2026-05-04 09:31 | 58.53424 | 17.76596 | 22816 ft | 438 kts | 7° |
| 2026-05-04 09:32 | 58.56359 | 17.77829 | 22157 ft | 427 kts | 7° |
| 2026-05-04 09:32 | 58.59220 | 17.79032 | 21525 ft | 416 kts | 7° |
| 2026-05-04 09:34 | 58.77120 | 17.86572 | 17517 ft | 391 kts | 6° |
| 2026-05-04 09:34 | 58.79773 | 17.87699 | 16905 ft | 390 kts | 7° |
| 2026-05-04 09:34 | 58.82361 | 17.89286 | 16443 ft | 390 kts | 18° |
| 2026-05-04 09:34 | 58.84797 | 17.91443 | 16240 ft | 380 kts | 21° |
| 2026-05-04 09:35 | 58.87124 | 17.93638 | 15948 ft | 376 kts | 21° |
| 2026-05-04 09:35 | 58.89467 | 17.95864 | 15624 ft | 374 kts | 21° |
| 2026-05-04 09:35 | 58.91798 | 17.98079 | 15302 ft | 372 kts | 21° |
| 2026-05-04 09:35 | 58.94118 | 18.00282 | 14987 ft | 370 kts | 21° |
| 2026-05-04 09:37 | 59.09985 | 18.14911 | 12750 ft | 345 kts | 7° |
| 2026-05-04 09:37 | 59.12331 | 18.15537 | 12591 ft | 339 kts | 359° |
| 2026-05-04 09:38 | 59.14678 | 18.15846 | 12351 ft | 337 kts | 358° |
| 2026-05-04 09:38 | 59.17011 | 18.16100 | 12063 ft | 335 kts | 358° |
| 2026-05-04 09:38 | 59.19333 | 18.16352 | 11775 ft | 333 kts | 358° |
| 2026-05-04 09:38 | 59.21637 | 18.16610 | 11491 ft | 331 kts | 358° |
| 2026-05-04 09:39 | 59.23927 | 18.16872 | 11209 ft | 329 kts | 358° |
| 2026-05-04 09:39 | 59.26187 | 18.17135 | 10999 ft | 320 kts | 358° |
| 2026-05-04 09:39 | 59.28369 | 18.17396 | 10779 ft | 309 kts | 358° |
| 2026-05-04 09:39 | 59.30489 | 18.17647 | 10511 ft | 302 kts | 358° |
| 2026-05-04 09:40 | 59.32562 | 18.17891 | 10253 ft | 295 kts | 358° |
| 2026-05-04 09:40 | 59.34547 | 18.18124 | 10003 ft | 292 kts | 358° |
| 2026-05-04 09:40 | 59.36568 | 18.18361 | 9751 ft | 290 kts | 358° |
| 2026-05-04 09:40 | 59.38582 | 18.18597 | 9409 ft | 289 kts | 358° |
| 2026-05-04 09:41 | 59.40578 | 18.18833 | 9132 ft | 287 kts | 359° |
| 2026-05-04 09:42 | 59.54392 | 18.20778 | 7458 ft | 283 kts | 5° |
| 2026-05-04 09:43 | 59.56334 | 18.21455 | 7233 ft | 284 kts | 6° |
| 2026-05-04 09:43 | 59.58268 | 18.22162 | 6982 ft | 283 kts | 7° |
| 2026-05-04 09:43 | 59.60202 | 18.22872 | 6751 ft | 282 kts | 7° |
| 2026-05-04 09:43 | 59.62128 | 18.23578 | 6509 ft | 281 kts | 7° |
| 2026-05-04 09:44 | 59.64049 | 18.24281 | 6270 ft | 280 kts | 7° |
| 2026-05-04 09:44 | 59.65962 | 18.24981 | 6023 ft | 279 kts | 7° |
| 2026-05-04 09:44 | 59.67870 | 18.25679 | 5772 ft | 279 kts | 7° |
| 2026-05-04 09:46 | 59.81007 | 18.30504 | 4125 ft | 270 kts | 7° |
| 2026-05-04 09:46 | 59.82857 | 18.30997 | 3843 ft | 266 kts | 356° |
| 2026-05-04 09:46 | 59.84637 | 18.30344 | 3661 ft | 258 kts | 333° |
| 2026-05-04 09:47 | 59.86055 | 18.28298 | 3519 ft | 251 kts | 307° |
| 2026-05-04 09:47 | 59.86866 | 18.25333 | 3415 ft | 248 kts | 283° |
| 2026-05-04 09:49 | 59.80042 | 18.07440 | 3371 ft | 210 kts | 229° |
| 2026-05-04 09:49 | 59.79097 | 18.05361 | 3268 ft | 196 kts | 230° |
| 2026-05-04 09:49 | 59.78204 | 18.03342 | 2877 ft | 198 kts | 230° |
| 2026-05-04 09:51 | 59.72526 | 17.94528 | 1388 ft | 129 kts | 196° |
| 2026-05-04 09:51 | 59.71643 | 17.94195 | 1198 ft | 129 kts | 194° |
| 2026-05-04 09:51 | 59.70765 | 17.93877 | 1014 ft | 128 kts | 194° |
| 2026-05-04 09:51 | 59.69886 | 17.93555 | 831 ft | 129 kts | 194° |
| 2026-05-04 09:52 | 59.69002 | 17.93232 | 647 ft | 128 kts | 192° |
| 2026-05-04 09:52 | 59.68126 | 17.92915 | 466 ft | 127 kts | 192° |
| 2026-05-04 09:52 | 59.67255 | 17.92600 | 301 ft | 127 kts | 192° |
| 2026-05-04 09:52 | 59.66393 | 17.92285 | 145 ft | 122 kts | 191° |
| 2026-05-04 09:53 | 59.65780 | 17.92062 | 147 ft | 55 kts | 191° |
| 2026-05-04 09:53 | 59.65424 | 17.91926 | 147 ft | 50 kts | 191° |
| 2026-05-04 09:53 | 59.65100 | 17.91957 | 143 ft | 46 kts | 160° |
| 2026-05-04 09:53 | 59.64799 | 17.92072 | 141 ft | 43 kts | 189° |
| 2026-05-04 09:54 | 59.64506 | 17.91964 | 141 ft | 42 kts | 191° |
| 2026-05-04 09:54 | 59.64344 | 17.92264 | 141 ft | 35 kts | 116° |
| 2026-05-04 09:54 | 59.64241 | 17.92674 | 141 ft | 27 kts | 117° |
| 2026-05-04 09:54 | 59.64243 | 17.92768 | 141 ft | 6 kts | 360° |
| 2026-05-04 09:55 | 59.64313 | 17.92831 | 141 ft | 12 kts | 38° |
| 2026-05-04 09:55 | 59.64340 | 17.92869 | 141 ft | 0 kts | 35° |